Terminal Aerodrome Forecast
Issued by NWS Louisville, KY

Home | Current Version | Previous Version | Text Only | Print | Product List | Glossary On
Versions: 1 2 3 4 5 6 7 8 9 10 11 12 13 14 15 16 17 18
000
FTUS43 KLMK 160900 AAD
TAFBWG
TAF AMD
KBWG 160911Z 1609/1706 22004KT P6SM VCSH OVC017
     FM161000 34005KT P6SM OVC012
     FM161500 33005KT P6SM BKN025
     FM162100 34005KT P6SM SCT035=

USA.gov is the U.S. government's official web portal to all federal, state and local government web resources and services.